Time;durP1;ratioP1;P1;durP2;ratioP2;P2;SDS_P1;SDS_P2;PMS_P1;PMS_P2;Temp;Humidity;BMP_temperature;BMP_pressure;BME280_temperature;BME280_humidity;BME280_pressure;Samples;Min_cycle;Max_cycle;Signal;HPM_P1;HPM_P2
2021/07/20 00:01:23;;;;;;;16.17;8.50;;;;;;;22.63;67.99;99930.32;126347;1099;105221;-76
2021/07/20 00:03:54;;;;;;;18.20;8.10;;;;;;;22.69;67.93;99931.95;126287;1099;104146;-78
2021/07/20 00:06:24;;;;;;;15.67;8.00;;;;;;;22.70;67.48;99920.36;126327;1099;104329;-77
2021/07/20 00:08:55;;;;;;;16.67;8.00;;;;;;;22.68;67.98;99923.06;126339;1099;104262;-76
2021/07/20 00:11:26;;;;;;;17.00;7.70;;;;;;;22.70;67.52;99920.36;126287;1099;104223;-76
2021/07/20 00:13:57;;;;;;;18.17;8.03;;;;;;;22.73;68.03;99917.61;126266;1099;104316;-77
2021/07/20 00:16:28;;;;;;;17.57;8.33;;;;;;;22.74;68.08;99914.90;126335;1099;104229;-77
2021/07/20 00:18:59;;;;;;;15.17;8.23;;;;;;;22.74;67.60;99909.55;126282;1099;104142;-77
2021/07/20 00:21:29;;;;;;;17.17;8.00;;;;;;;22.76;68.47;99904.16;126282;1099;104252;-77
2021/07/20 00:24:00;;;;;;;16.37;9.10;;;;;;;22.83;68.03;99902.21;126262;1099;104201;-77
2021/07/20 00:26:31;;;;;;;16.80;7.97;;;;;;;22.87;68.40;99899.42;126356;1099;104187;-76
2021/07/20 00:29:02;;;;;;;16.97;8.57;;;;;;;22.88;68.21;99892.30;126328;1099;104152;-77
2021/07/20 00:31:37;;;;;;;16.57;8.80;;;;;;;22.87;68.57;99888.72;126359;1099;104355;-77
2021/07/20 00:34:12;;;;;;;17.03;8.23;;;;;;;22.85;68.58;99885.22;126315;1099;104175;-75
2021/07/20 00:36:43;;;;;;;21.73;9.33;;;;;;;22.80;68.99;99884.46;126335;1098;104602;-76
2021/07/20 00:39:14;;;;;;;18.90;8.55;;;;;;;22.78;68.92;99875.58;126374;1099;104140;-77
2021/07/20 00:41:48;;;;;;;15.13;8.20;;;;;;;22.77;69.04;99874.70;126363;1099;104141;-77
2021/07/20 00:44:19;;;;;;;17.55;8.30;;;;;;;22.76;69.07;99872.07;126248;1099;104325;-77
2021/07/20 00:46:52;;;;;;;18.33;7.73;;;;;;;22.74;69.09;99877.45;126366;1099;104197;-77
2021/07/20 00:49:23;;;;;;;17.53;8.33;;;;;;;22.72;68.83;99870.38;126333;1098;104217;-77
2021/07/20 00:51:54;;;;;;;16.23;7.93;;;;;;;22.72;68.71;99870.38;126335;1099;104685;-76
2021/07/20 00:54:25;;;;;;;14.67;8.10;;;;;;;22.69;68.79;99870.45;126315;1098;104178;-76
2021/07/20 00:56:56;;;;;;;16.43;8.07;;;;;;;22.66;69.82;99873.20;126336;1099;104171;-77
2021/07/20 00:59:28;;;;;;;16.07;8.20;;;;;;;22.60;69.45;99863.55;126341;1099;104144;-77
2021/07/20 01:01:58;;;;;;;16.47;8.20;;;;;;;22.51;69.46;99859.28;126350;1099;104220;-77
2021/07/20 01:04:29;;;;;;;18.53;8.43;;;;;;;22.48;70.12;99862.03;126326;1099;104153;-77
2021/07/20 01:07:03;;;;;;;15.50;8.40;;;;;;;22.44;69.55;99865.71;126324;1099;104230;-77
2021/07/20 01:09:35;;;;;;;15.27;8.10;;;;;;;22.42;69.81;99864.84;126253;1099;104312;-77
2021/07/20 01:12:08;;;;;;;18.60;7.97;;;;;;;22.39;69.72;99859.57;126384;1099;104294;-77
2021/07/20 01:14:50;;;;;;;16.43;8.23;;;;;;;22.38;70.52;99863.18;126310;1099;104248;-76
2021/07/20 01:17:22;;;;;;;15.23;8.30;;;;;;;22.36;69.92;99862.31;126375;1099;104194;-76
2021/07/20 01:19:55;;;;;;;18.40;8.63;;;;;;;22.35;69.98;99855.23;126336;1099;104251;-76
2021/07/20 01:22:33;;;;;;;14.13;8.17;;;;;;;22.36;70.18;99859.64;126298;1099;104149;-78
2021/07/20 01:25:09;;;;;;;15.07;8.40;;;;;;;22.33;70.36;99862.38;126308;1099;104201;-77
2021/07/20 01:27:45;;;;;;;17.53;8.37;;;;;;;22.32;70.04;99857.98;126344;1099;104252;-76
2021/07/20 01:30:19;;;;;;;16.57;8.80;;;;;;;22.30;70.91;99854.41;126317;1099;104226;-78
2021/07/20 01:32:57;;;;;;;19.83;8.80;;;;;;;22.27;70.03;99852.70;126333;1099;104248;-77
2021/07/20 01:35:29;;;;;;;14.83;8.20;;;;;;;22.26;70.84;99851.80;126253;1099;104249;-77
2021/07/20 01:38:04;;;;;;;16.23;8.37;;;;;;;22.27;70.36;99850.03;126353;1099;104159;-77
2021/07/20 01:40:34;;;;;;;;;;;;;;;22.28;70.89;99851.77;126364;1099;104248;-76
2021/07/20 01:43:07;;;;;;;16.93;8.57;;;;;;;22.28;71.29;99846.42;126301;1099;104194;-77
2021/07/20 01:45:41;;;;;;;19.03;8.80;;;;;;;22.29;70.93;99858.02;126199;1099;104150;-76
2021/07/20 01:48:11;;;;;;;;;;;;;;;22.25;70.48;99855.41;126362;1099;104149;-76
2021/07/20 01:50:43;;;;;;;15.20;8.57;;;;;;;22.21;71.47;99853.70;126368;1099;104160;-76
2021/07/20 01:53:16;;;;;;;14.57;8.30;;;;;;;22.18;71.58;99861.79;126320;1099;104171;-77
2021/07/20 01:55:47;;;;;;;16.57;9.27;;;;;;;22.17;71.53;99851.14;126312;1099;104159;-77
2021/07/20 01:58:18;;;;;;;16.60;8.60;;;;;;;22.15;71.91;99851.17;126350;1098;104214;-77
2021/07/20 02:01:00;;;;;;;18.60;9.27;;;;;;;22.16;71.45;99852.94;126325;1098;104297;-77
2021/07/20 02:03:47;;;;;;;21.50;9.47;;;;;;;22.15;71.90;99855.64;126374;1099;104159;-77
2021/07/20 02:11:12;;;;;;;18.23;8.80;;;;;;;22.10;72.61;99858.42;125285;1102;105565;-76
2021/07/20 02:14:05;;;;;;;16.07;8.73;;;;;;;22.08;71.92;99853.11;125186;1101;104278;-77
2021/07/20 02:16:52;;;;;;;22.20;14.63;;;;;;;22.08;72.04;99855.78;125144;1102;104248;-76
2021/07/20 02:19:28;;;;;;;22.23;12.00;;;;;;;22.07;72.05;99855.81;125108;1102;104221;-77
2021/07/20 02:22:16;;;;;;;20.77;10.30;;;;;;;22.08;71.67;99865.59;125107;1102;108959;-78
2021/07/20 02:24:53;;;;;;;19.70;10.80;;;;;;;22.08;71.56;99870.94;125137;1102;104252;-77
2021/07/20 02:27:27;;;;;;;18.47;9.80;;;;;;;22.07;72.17;99874.52;125212;1102;104255;-77
2021/07/20 02:30:09;;;;;;;19.30;9.03;;;;;;;22.05;72.89;99871.00;125034;1102;104258;-76
2021/07/20 02:32:43;;;;;;;17.20;8.95;;;;;;;22.00;72.67;99871.10;125120;1102;119038;-77
2021/07/20 02:35:26;;;;;;;19.00;9.10;;;;;;;22.00;72.29;99862.19;125119;1102;104187;-77
2021/07/20 02:38:01;;;;;;;18.70;9.27;;;;;;;22.00;73.07;99872.88;125209;1102;104249;-76
2021/07/20 02:40:35;;;;;;;21.53;10.20;;;;;;;21.99;73.40;99865.80;125088;1101;104255;-75
2021/07/20 02:43:06;;;;;;;18.80;9.67;;;;;;;21.99;72.74;99865.80;125165;1102;104248;-77
2021/07/20 02:45:39;;;;;;;18.87;9.07;;;;;;;22.02;73.51;99865.73;125248;1102;104220;-77
2021/07/20 02:48:15;;;;;;;18.17;8.83;;;;;;;22.06;73.39;99862.95;125143;1102;105504;-78
2021/07/20 02:50:48;;;;;;;18.83;9.07;;;;;;;22.10;73.33;99860.22;125171;1102;104249;-78
2021/07/20 02:53:23;;;;;;;16.70;8.67;;;;;;;22.12;73.34;99861.92;125007;1103;104156;-76
2021/07/20 02:56:04;;;;;;;20.17;9.47;;;;;;;22.15;73.49;99866.33;125038;1102;104143;-76
2021/07/20 02:58:42;;;;;;;17.70;9.57;;;;;;;22.17;73.40;99878.73;125033;1102;104220;-76
2021/07/20 03:01:14;;;;;;;19.53;9.37;;;;;;;22.19;73.56;99870.67;124919;1102;104306;-76
2021/07/20 03:03:46;;;;;;;16.80;8.80;;;;;;;22.19;73.01;99876.02;125117;1102;104188;-76
2021/07/20 03:06:17;;;;;;;17.83;9.27;;;;;;;22.22;74.04;99868.84;125112;1102;104146;-77
2021/07/20 03:08:52;;;;;;;16.07;9.10;;;;;;;22.25;73.98;99868.77;125167;1101;104244;-77
2021/07/20 03:11:41;;;;;;;17.77;8.90;;;;;;;22.27;73.54;99866.06;125071;1102;104227;-78
2021/07/20 03:14:15;;;;;;;14.90;8.77;;;;;;;22.30;73.59;99867.77;124987;1102;104738;-77
2021/07/20 03:16:59;;;;;;;18.90;9.70;;;;;;;22.36;73.61;99870.33;125200;1101;104223;-78
2021/07/20 03:19:32;;;;;;;17.65;9.25;;;;;;;22.39;74.12;99863.15;125223;1102;104188;-76
2021/07/20 03:22:08;;;;;;;16.40;8.90;;;;;;;22.43;73.62;99869.29;125176;1102;104150;-76
2021/07/20 03:24:44;;;;;;;17.10;8.90;;;;;;;22.50;73.60;99865.57;125193;1102;104303;-77
2021/07/20 03:27:16;;;;;;;19.87;10.00;;;;;;;22.56;73.71;99868.10;124971;1102;104230;-76
2021/07/20 03:29:53;;;;;;;22.63;9.57;;;;;;;22.66;74.04;99874.09;125176;1102;104146;-77
2021/07/20 03:32:26;;;;;;;17.33;9.47;;;;;;;22.71;74.22;99872.19;125154;1102;104603;-78
2021/07/20 03:34:58;;;;;;;19.30;9.48;;;;;;;22.76;73.69;99874.75;125240;1102;104287;-77
2021/07/20 03:37:30;;;;;;;19.57;10.20;;;;;;;22.80;74.00;99873.77;125157;1102;104147;-77
2021/07/20 03:40:03;;;;;;;18.27;8.90;;;;;;;22.80;74.05;99865.74;125145;1102;104297;-76
2021/07/20 03:42:40;;;;;;;19.70;9.25;;;;;;;22.80;73.59;99869.28;125048;1102;104146;-76
2021/07/20 03:45:13;;;;;;;18.53;9.67;;;;;;;22.79;73.56;99867.52;125161;1102;104621;-76
2021/07/20 03:47:45;;;;;;;19.20;9.60;;;;;;;22.79;74.02;99856.82;125184;1102;104207;-78
2021/07/20 03:50:26;;;;;;;19.20;9.73;;;;;;;22.83;74.17;99859.41;125195;1102;104704;-77
2021/07/20 03:52:59;;;;;;;19.83;9.80;;;;;;;22.87;74.43;99861.11;125092;1102;104277;-77
2021/07/20 03:55:30;;;;;;;17.20;9.37;;;;;;;22.89;73.54;99857.49;125229;1102;104159;-76
2021/07/20 03:58:01;;;;;;;20.57;9.70;;;;;;;22.93;74.20;99855.61;125310;1102;104220;-77
2021/07/20 04:00:34;;;;;;;20.30;9.93;;;;;;;22.95;74.23;99856.44;125314;1102;104200;-76
2021/07/20 04:06:12;;;;;;;21.77;10.23;;;;;;;23.02;74.08;99851.83;125010;1102;104194;-77
2021/07/20 04:09:00;;;;;;;22.60;10.97;;;;;;;23.06;73.73;99848.13;125183;1102;104152;-77
2021/07/20 04:11:53;;;;;;;20.43;10.00;;;;;;;23.12;74.20;99850.69;125225;1099;104143;-77
2021/07/20 04:14:26;;;;;;;23.77;10.40;;;;;;;23.19;74.18;99854.97;125191;1099;104245;-77
2021/07/20 04:17:03;;;;;;;19.53;10.20;;;;;;;23.24;74.19;99852.17;125248;1099;104262;-77
2021/07/20 04:19:36;;;;;;;19.92;10.18;;;;;;;23.27;74.35;99852.95;125282;1099;104271;-77
2021/07/20 04:22:11;;;;;;;21.70;10.77;;;;;;;23.30;73.78;99860.03;125275;1099;104188;-78
2021/07/20 04:24:44;;;;;;;21.70;10.83;;;;;;;23.33;73.80;99857.27;125158;1099;110343;-78
2021/07/20 04:27:16;;;;;;;;;;;;;;;23.36;74.10;99858.97;125212;1099;104140;-77
2021/07/20 04:29:48;;;;;;;20.70;10.40;;;;;;;23.41;73.68;99857.94;125271;1099;104829;-78
2021/07/20 04:32:20;;;;;;;22.50;10.90;;;;;;;23.49;73.85;99863.08;125172;1099;104210;-77
2021/07/20 04:34:53;;;;;;;23.27;10.75;;;;;;;23.58;73.86;99854.79;125129;1102;104216;-76
2021/07/20 04:37:29;;;;;;;23.80;11.10;;;;;;;23.65;73.85;99847.45;125151;1099;104294;-77
2021/07/20 04:40:03;;;;;;;22.83;10.53;;;;;;;23.75;73.91;99853.41;125243;1098;104140;-79
2021/07/20 04:42:41;;;;;;;23.13;11.17;;;;;;;23.84;73.70;99846.05;125229;1099;104245;-78
2021/07/20 04:45:14;;;;;;;21.20;11.73;;;;;;;23.97;73.94;99853.72;125114;1099;108646;-77
2021/07/20 04:47:51;;;;;;;21.03;10.70;;;;;;;24.05;73.81;99857.04;125207;1099;104605;-77
2021/07/20 04:50:30;;;;;;;21.30;11.37;;;;;;;24.11;73.61;99848.81;125240;1099;104169;-77
2021/07/20 04:53:03;;;;;;;21.30;11.55;;;;;;;24.17;73.43;99843.27;125254;1099;104182;-78
2021/07/20 04:55:38;;;;;;;25.47;12.27;;;;;;;24.26;73.45;99851.94;125201;1100;104210;-78
2021/07/20 04:58:10;;;;;;;27.63;12.80;;;;;;;24.34;73.16;99856.15;125193;1099;104599;-77
2021/07/20 05:00:42;;;;;;;24.27;11.90;;;;;;;24.44;73.23;99850.50;125270;1099;104143;-80
2021/07/20 05:03:16;;;;;;;23.40;11.95;;;;;;;24.54;73.42;99846.58;125259;1099;104245;-77
2021/07/20 05:05:48;;;;;;;23.45;11.40;;;;;;;24.64;73.46;99855.25;125239;1099;104264;-77
2021/07/20 05:08:22;;;;;;;23.90;12.30;;;;;;;24.74;73.13;99854.00;125190;1099;104640;-77
2021/07/20 05:10:58;;;;;;;26.77;11.97;;;;;;;24.85;73.12;99859.88;125267;1099;104428;-76
2021/07/20 05:13:35;;;;;;;23.60;12.00;;;;;;;24.93;72.72;99855.16;125259;1099;104242;-77
2021/07/20 05:16:08;;;;;;;22.40;11.77;;;;;;;24.97;72.41;99850.55;125260;1102;108055;-77
2021/07/20 05:18:50;;;;;;;23.92;12.98;;;;;;;25.03;72.35;99844.98;125233;1102;104404;-76
2021/07/20 05:21:41;;;;;;;24.00;12.57;;;;;;;25.12;72.27;99850.03;125284;1102;104184;-78
2021/07/20 05:24:12;;;;;;;25.03;13.37;;;;;;;25.23;72.12;99851.48;125207;1102;104194;-77
2021/07/20 05:27:02;;;;;;;28.20;12.30;;;;;;;25.33;72.51;99847.55;125244;1102;104774;-78
2021/07/20 05:29:37;;;;;;;25.63;13.03;;;;;;;25.40;71.94;99850.88;125253;1102;104305;-77
2021/07/20 05:32:20;;;;;;;24.10;12.00;;;;;;;25.40;71.95;99849.09;124991;1102;104306;-79
2021/07/20 05:34:53;;;;;;;26.70;13.33;;;;;;;25.45;71.97;99856.98;125191;1102;104474;-78
2021/07/20 05:37:24;;;;;;;26.53;13.57;;;;;;;25.50;71.60;99843.39;125210;1102;104335;-78
2021/07/20 05:40:01;;;;;;;24.57;12.30;;;;;;;25.58;71.54;99846.66;125295;1101;104165;-79
2021/07/20 05:42:48;;;;;;;22.27;11.73;;;;;;;25.66;71.28;99841.87;125154;1102;104267;-79
2021/07/20 05:45:32;;;;;;;30.60;12.15;;;;;;;25.76;71.66;99843.30;125170;1102;104307;-77
2021/07/20 05:48:10;;;;;;;24.37;12.80;;;;;;;25.79;71.29;99837.81;125183;1102;104252;-78
2021/07/20 05:50:53;;;;;;;25.50;13.43;;;;;;;25.83;71.06;99833.19;125098;1102;104313;-77
2021/07/20 05:53:38;;;;;;;24.10;14.00;;;;;;;25.89;70.77;99846.39;125151;1102;104191;-77
2021/07/20 05:56:28;;;;;;;26.87;14.30;;;;;;;25.93;70.48;99842.66;125186;1102;104179;-77
2021/07/20 05:59:09;;;;;;;23.17;13.03;;;;;;;25.99;70.61;99845.15;125210;1102;104333;-81
2021/07/20 06:01:46;;;;;;;27.87;14.23;;;;;;;26.02;70.04;99849.51;125114;1102;104178;-79
2021/07/20 06:04:22;;;;;;;30.07;14.70;;;;;;;26.01;69.73;99845.09;125074;1099;104274;-78
2021/07/20 06:07:02;;;;;;;27.93;13.67;;;;;;;26.06;70.02;99836.84;125204;1103;105347;-78
2021/07/20 06:09:36;;;;;;;28.83;14.23;;;;;;;26.13;69.63;99844.61;125347;1102;104157;-80
2021/07/20 06:12:15;;;;;;;29.30;15.13;;;;;;;26.20;69.39;99842.55;126292;1099;104224;-81
2021/07/20 06:14:50;;;;;;;25.03;13.57;;;;;;;26.31;69.73;99847.50;125285;1102;104347;-80
2021/07/20 06:17:26;;;;;;;28.50;14.07;;;;;;;26.42;69.16;99842.56;125095;1099;107102;-77
2021/07/20 06:19:59;;;;;;;;;;;;;;;26.45;68.29;99842.44;125112;1102;104267;-80
2021/07/20 06:22:36;;;;;;;25.33;14.37;;;;;;;26.51;68.54;99836.81;125101;1099;104242;-79
2021/07/20 06:25:15;;;;;;;27.13;14.53;;;;;;;26.63;68.35;99843.52;125170;1098;104137;-79
2021/07/20 06:27:58;;;;;;;26.20;14.73;;;;;;;26.72;68.43;99842.28;125887;1099;118432;-80
2021/07/20 06:30:42;;;;;;;25.63;13.83;;;;;;;26.79;68.45;99842.92;126112;1099;104248;-83
2021/07/20 06:33:20;;;;;;;28.10;13.90;;;;;;;26.84;68.09;99844.45;125287;1102;104193;-78
2021/07/20 06:35:55;;;;;;;25.57;13.77;;;;;;;26.96;67.64;99845.77;125941;1099;105463;-77
2021/07/20 06:38:29;;;;;;;26.87;15.07;;;;;;;27.14;67.90;99848.60;125227;1099;104156;-77
2021/07/20 06:41:02;;;;;;;29.33;14.83;;;;;;;27.32;67.72;99844.28;125128;1102;104137;-79
2021/07/20 06:43:37;;;;;;;27.43;14.90;;;;;;;27.46;67.06;99846.33;125155;1099;104194;-79
2021/07/20 06:46:13;;;;;;;29.67;14.80;;;;;;;27.57;66.95;99833.27;125275;1099;104267;-81
2021/07/20 06:48:49;;;;;;;28.60;14.30;;;;;;;27.64;66.97;99832.03;125318;1100;104143;-81
2021/07/20 06:51:28;;;;;;;25.97;14.80;;;;;;;27.76;66.33;99830.60;125318;1102;104191;-82
2021/07/20 06:54:06;;;;;;;28.83;14.43;;;;;;;27.89;66.13;99836.29;126276;1099;104219;-79
2021/07/20 06:56:47;;;;;;;28.50;14.80;;;;;;;28.10;66.39;99831.75;125745;1099;104296;-80
2021/07/20 06:59:30;;;;;;;28.63;15.27;;;;;;;28.31;65.86;99833.42;125180;1100;104227;-80
2021/07/20 07:02:09;;;;;;;29.27;14.63;;;;;;;28.46;65.76;99828.22;125167;1102;104594;-81
2021/07/20 07:04:54;;;;;;;30.17;16.65;;;;;;;28.47;64.87;99827.25;125114;1099;104201;-78
2021/07/20 07:07:33;;;;;;;27.10;14.93;;;;;;;28.48;64.50;99831.70;125262;1102;104185;-76
2021/07/20 07:10:12;;;;;;;25.40;15.60;;;;;;;28.62;63.94;99826.52;126062;1099;104235;-77
2021/07/20 07:12:50;;;;;;;25.27;14.90;;;;;;;28.79;64.41;99824.81;125350;1102;101734;-79
2021/07/20 07:15:31;;;;;;;29.10;14.53;;;;;;;29.00;63.99;99821.02;126198;1098;104191;-78
2021/07/20 07:18:05;;;;;;;28.70;14.70;;;;;;;29.09;63.63;99824.19;125144;1100;104191;-80
2021/07/20 07:20:39;;;;;;;29.97;15.10;;;;;;;29.12;63.36;99821.33;125147;1099;104245;-78
2021/07/20 07:23:13;;;;;;;29.10;14.83;;;;;;;29.16;62.93;99821.09;125095;1099;104399;-78
2021/07/20 07:25:49;;;;;;;26.93;14.43;;;;;;;29.20;62.73;99821.83;125123;1099;104146;-78
2021/07/20 07:28:22;;;;;;;26.13;14.87;;;;;;;29.26;62.79;99817.94;125307;1102;101808;-77
2021/07/20 07:30:56;;;;;;;25.20;14.13;;;;;;;29.27;62.70;99811.59;126252;1099;104204;-77
2021/07/20 07:33:27;;;;;;;30.23;15.50;;;;;;;29.17;62.01;99806.64;125333;1102;104232;-79
2021/07/20 07:36:02;;;;;;;26.93;14.43;;;;;;;29.11;61.76;99801.56;126248;1099;104188;-78
2021/07/20 07:38:42;;;;;;;28.70;14.00;;;;;;;29.11;61.90;99806.06;125301;1099;104233;-80
2021/07/20 07:41:17;;;;;;;25.67;13.70;;;;;;;29.03;61.56;99803.77;125190;1099;104176;-76
2021/07/20 07:43:55;;;;;;;26.47;14.10;;;;;;;29.08;61.42;99799.02;125239;1099;104198;-78
2021/07/20 07:46:32;;;;;;;28.20;13.80;;;;;;;29.19;61.41;99793.05;125124;1101;104197;-77
2021/07/20 07:49:08;;;;;;;28.90;14.23;;;;;;;29.31;61.07;99797.84;126089;1099;104306;-78
2021/07/20 07:51:40;;;;;;;27.80;14.10;;;;;;;29.47;60.95;99789.78;126154;1099;104191;-76
2021/07/20 07:54:12;;;;;;;31.70;15.05;;;;;;;29.64;61.11;99793.38;126107;1099;105339;-76
2021/07/20 07:56:47;;;;;;;32.13;14.87;;;;;;;29.80;60.74;99796.16;125209;1102;104297;-76
2021/07/20 07:59:23;;;;;;;23.93;14.20;;;;;;;29.83;59.90;99783.34;125116;1099;104153;-78
2021/07/20 08:01:57;;;;;;;24.17;14.33;;;;;;;29.86;60.24;99793.12;125137;1100;104149;-77
2021/07/20 08:04:35;;;;;;;27.23;14.00;;;;;;;30.05;59.86;99787.54;125161;1099;104285;-77
2021/07/20 08:07:09;;;;;;;27.87;14.37;;;;;;;30.31;59.69;99788.76;125173;1102;104255;-77
2021/07/20 08:09:45;;;;;;;29.37;14.17;;;;;;;30.49;59.51;99792.25;126277;1099;104181;-78
2021/07/20 08:12:22;;;;;;;25.03;13.87;;;;;;;30.54;58.26;99791.98;126284;1099;104159;-80
2021/07/20 08:14:55;;;;;;;23.93;13.40;;;;;;;30.62;58.42;99781.56;126173;1099;104306;-78
2021/07/20 08:17:36;;;;;;;31.10;15.10;;;;;;;30.77;58.27;99777.08;126321;1099;104210;-79
2021/07/20 08:20:22;;;;;;;26.57;14.73;;;;;;;30.88;57.78;99776.44;125175;1102;109434;-78
2021/07/20 08:22:55;;;;;;;24.90;13.33;;;;;;;30.95;57.04;99772.41;125220;1099;104150;-78
2021/07/20 08:25:40;;;;;;;26.23;13.97;;;;;;;30.94;56.76;99773.36;125233;1099;104540;-78
2021/07/20 08:28:26;;;;;;;26.53;14.37;;;;;;;30.96;56.16;99771.42;125232;1102;104304;-77
2021/07/20 08:31:04;;;;;;;24.77;13.73;;;;;;;31.08;56.26;99767.14;126279;1099;104165;-79
2021/07/20 08:33:39;;;;;;;26.87;14.00;;;;;;;31.15;56.03;99757.64;125273;1102;104174;-79
2021/07/20 08:36:23;;;;;;;29.27;14.73;;;;;;;31.26;56.25;99759.69;125328;1102;101940;-78
2021/07/20 08:39:29;;;;;;;27.40;14.87;;;;;;;31.24;55.77;99753.50;125031;1099;104238;-77
2021/07/20 08:42:27;;;;;;;26.03;14.77;;;;;;;31.27;55.52;99748.75;125177;1099;104334;-76
2021/07/20 08:45:17;;;;;;;25.97;13.83;;;;;;;31.38;55.20;99758.92;125223;1099;104201;-76
2021/07/20 08:48:05;;;;;;;31.33;14.23;;;;;;;31.48;55.36;99760.10;125182;1102;104605;-76
2021/07/20 08:50:45;;;;;;;28.07;14.37;;;;;;;31.59;54.88;99753.17;125379;1099;104268;-77
2021/07/20 08:53:33;;;;;;;24.87;13.83;;;;;;;31.54;54.20;99754.33;126085;1099;104202;-76
2021/07/20 08:56:07;;;;;;;31.23;15.20;;;;;;;31.63;54.40;99743.85;125362;1100;104339;-78
2021/07/20 08:58:45;;;;;;;25.80;13.97;;;;;;;31.70;54.00;99740.65;125182;1100;104136;-79
2021/07/20 09:01:23;;;;;;;24.57;14.87;;;;;;;31.85;54.11;99738.80;125162;1099;104566;-77
2021/07/20 09:04:02;;;;;;;27.65;14.40;;;;;;;31.94;53.65;99741.87;125046;1100;104284;-78
2021/07/20 09:06:40;;;;;;;32.87;13.80;;;;;;;32.11;53.73;99744.38;125130;1102;104169;-79
2021/07/20 09:09:14;;;;;;;26.27;13.07;;;;;;;32.32;53.90;99739.37;125292;1102;104303;-77
2021/07/20 09:11:49;;;;;;;26.30;13.13;;;;;;;32.50;53.24;99737.23;126203;1099;104140;-79
2021/07/20 09:14:30;;;;;;;25.73;13.40;;;;;;;32.61;52.70;99740.11;126209;1099;104242;-77
2021/07/20 09:17:10;;;;;;;24.23;12.50;;;;;;;32.74;52.79;99726.59;125333;1100;104166;-76
2021/07/20 09:19:51;;;;;;;23.77;13.97;;;;;;;32.90;52.31;99728.23;125751;1099;104293;-77
2021/07/20 09:22:31;;;;;;;24.30;13.73;;;;;;;32.98;52.33;99724.98;125202;1099;104222;-78
2021/07/20 09:25:09;;;;;;;24.07;13.10;;;;;;;32.96;52.06;99722.38;125190;1102;104169;-78
2021/07/20 09:27:57;;;;;;;25.53;13.77;;;;;;;32.87;52.00;99726.59;125173;1099;104233;-79
2021/07/20 09:30:40;;;;;;;26.47;13.77;;;;;;;32.81;51.84;99718.87;125759;1099;104146;-77
2021/07/20 09:33:25;;;;;;;24.85;13.05;;;;;;;32.76;51.52;99710.19;126275;1099;104162;-77
2021/07/20 09:36:00;;;;;;;24.53;13.23;;;;;;;32.73;51.53;99705.82;126236;1098;104146;-77
2021/07/20 09:39:02;;;;;;;26.87;13.27;;;;;;;32.68;51.86;99708.00;126185;1099;104208;-79
2021/07/20 09:41:43;;;;;;;26.90;12.83;;;;;;;32.59;51.74;99695.02;125122;1099;104185;-77
2021/07/20 09:44:26;;;;;;;24.50;12.40;;;;;;;32.55;51.62;99699.80;125220;1099;104147;-76
2021/07/20 09:47:10;;;;;;;22.37;13.40;;;;;;;32.56;51.92;99692.52;125226;1099;104284;-76
2021/07/20 09:50:05;;;;;;;23.40;12.23;;;;;;;32.61;51.90;99680.37;125189;1102;105623;-77
2021/07/20 09:53:01;;;;;;;24.25;12.95;;;;;;;32.77;51.61;99680.20;126310;1099;104146;-76
2021/07/20 09:55:48;;;;;;;26.47;12.57;;;;;;;33.01;51.56;99676.72;125236;1102;104309;-76
2021/07/20 09:58:32;;;;;;;24.60;12.33;;;;;;;33.33;51.35;99668.13;126265;1099;104252;-76
2021/07/20 10:01:14;;;;;;;24.97;12.60;;;;;;;33.56;50.90;99668.30;125607;1099;104153;-77
2021/07/20 10:03:54;;;;;;;22.87;13.10;;;;;;;33.60;50.48;99670.69;125165;1099;104692;-75
2021/07/20 10:06:36;;;;;;;24.00;12.23;;;;;;;33.61;50.20;99666.11;125231;1099;104182;-75
2021/07/20 10:09:12;;;;;;;22.83;11.90;;;;;;;33.64;50.03;99664.05;125064;1099;104172;-75
2021/07/20 10:11:52;;;;;;;21.07;12.00;;;;;;;33.63;49.63;99664.16;125133;1099;104181;-75
2021/07/20 10:14:38;;;;;;;21.47;12.67;;;;;;;33.52;49.19;99659.52;125041;1102;104194;-75
2021/07/20 10:17:18;;;;;;;22.30;11.97;;;;;;;33.52;49.35;99654.08;125099;1099;104173;-75
2021/07/20 10:19:54;;;;;;;22.43;11.70;;;;;;;33.52;48.99;99651.36;125105;1099;104171;-75
2021/07/20 10:22:30;;;;;;;21.90;11.77;;;;;;;33.36;49.16;99650.73;125105;1099;110683;-75
2021/07/20 10:25:12;;;;;;;25.43;12.27;;;;;;;33.22;49.15;99649.87;125184;1102;104149;-76
2021/07/20 10:27:50;;;;;;;26.67;12.60;;;;;;;33.05;48.95;99636.60;125085;1099;104169;-76
2021/07/20 10:30:26;;;;;;;21.33;12.30;;;;;;;32.95;48.89;99637.26;125087;1102;104136;-75
2021/07/20 10:33:10;;;;;;;22.60;12.73;;;;;;;32.84;48.46;99630.88;125054;1099;104345;-76
2021/07/20 10:35:49;;;;;;;22.57;13.30;;;;;;;32.77;48.91;99623.16;125178;1099;104268;-76
2021/07/20 10:38:25;;;;;;;26.03;13.07;;;;;;;32.74;48.94;99630.63;125170;1099;104152;-75
2021/07/20 10:40:59;;;;;;;26.33;13.30;;;;;;;32.74;49.11;99628.80;125108;1102;104180;-75
2021/07/20 10:43:33;;;;;;;24.50;12.90;;;;;;;32.72;48.87;99627.16;125209;1102;104216;-75
2021/07/20 10:46:10;;;;;;;22.73;12.80;;;;;;;32.73;49.15;99612.62;125179;1102;104368;-76
2021/07/20 10:48:44;;;;;;;23.83;13.60;;;;;;;32.74;49.29;99620.66;125170;1102;104175;-75
2021/07/20 10:51:22;;;;;;;24.63;13.27;;;;;;;32.89;49.26;99613.24;125189;1102;104136;-75
2021/07/20 10:54:01;;;;;;;25.90;13.17;;;;;;;33.10;49.45;99613.56;125232;1102;104325;-76
2021/07/20 10:56:40;;;;;;;27.07;12.93;;;;;;;33.43;49.12;99616.69;125152;1102;104592;-77
2021/07/20 10:59:20;;;;;;;28.60;13.00;;;;;;;33.64;48.73;99615.09;125253;1102;104171;-75
2021/07/20 11:02:01;;;;;;;22.53;13.27;;;;;;;33.68;48.32;99608.42;125169;1102;104344;-74
2021/07/20 11:04:44;;;;;;;22.47;12.63;;;;;;;33.81;48.40;99597.50;125262;1102;104332;-75
2021/07/20 11:07:19;;;;;;;23.42;12.78;;;;;;;33.95;47.87;99591.02;125295;1102;104411;-74
2021/07/20 11:09:52;;;;;;;24.67;12.90;;;;;;;34.10;47.77;99588.13;125272;1102;104395;-75
2021/07/20 11:12:25;;;;;;;24.37;13.53;;;;;;;34.17;47.15;99582.09;125207;1099;104437;-75
2021/07/20 11:14:58;;;;;;;26.70;12.60;;;;;;;34.09;47.08;99576.34;125243;1102;104189;-74
2021/07/20 11:17:31;;;;;;;24.87;12.93;;;;;;;33.89;47.02;99583.31;125191;1099;104285;-76
2021/07/20 11:20:06;;;;;;;21.93;13.13;;;;;;;33.74;47.01;99576.32;125174;1102;104257;-75
2021/07/20 11:22:41;;;;;;;27.77;13.63;;;;;;;33.67;46.99;99576.78;125102;1099;104583;-78
2021/07/20 11:25:15;;;;;;;28.40;13.40;;;;;;;33.64;47.05;99571.58;125144;1102;104159;-79
2021/07/20 11:27:48;;;;;;;28.17;14.03;;;;;;;33.64;47.01;99570.69;125168;1099;104181;-78
2021/07/20 11:30:22;;;;;;;27.50;14.03;;;;;;;33.80;47.09;99570.41;125133;1102;104249;-79
2021/07/20 11:33:01;;;;;;;25.37;13.47;;;;;;;33.82;46.50;99569.33;125183;1099;104214;-78
2021/07/20 11:35:42;;;;;;;23.70;13.40;;;;;;;33.73;46.97;99566.45;125143;1102;104387;-77
2021/07/20 11:38:16;;;;;;;23.40;13.63;;;;;;;33.66;46.71;99558.72;125204;1100;104246;-77
2021/07/20 11:40:55;;;;;;;25.23;14.07;;;;;;;33.76;46.76;99552.61;125072;1099;104463;-76
2021/07/20 11:43:33;;;;;;;30.10;12.50;;;;;;;33.88;46.84;99554.39;125148;1099;105459;-77
2021/07/20 11:46:26;;;;;;;26.53;12.10;;;;;;;33.88;47.21;99539.91;124868;1102;104316;-77
2021/07/20 11:49:05;;;;;;;22.87;11.80;;;;;;;33.66;47.65;99547.84;124877;1105;104345;-75
2021/07/20 11:51:42;;;;;;;24.37;12.40;;;;;;;33.41;47.78;99539.78;124970;1102;104322;-77
2021/07/20 11:54:25;;;;;;;23.33;12.47;;;;;;;33.26;47.94;99531.80;124901;1105;104339;-76
2021/07/20 11:57:01;;;;;;;;;;;;;;;33.07;48.72;99534.13;124987;1102;104216;-76